sensor_id;sensor_type;location;lat;lon;timestamp;P1;durP1;ratioP1;P2;durP2;ratioP2
18360;SDS011;9308;48.550;9.108;2022-10-16T00:00:41;2.80;;;2.60;;
18360;SDS011;9308;48.550;9.108;2022-10-16T00:03:07;2.50;;;2.30;;
18360;SDS011;9308;48.550;9.108;2022-10-16T00:05:37;2.77;;;2.50;;
18360;SDS011;9308;48.550;9.108;2022-10-16T00:08:07;3.03;;;2.77;;
18360;SDS011;9308;48.550;9.108;2022-10-16T00:10:33;2.50;;;2.30;;
18360;SDS011;9308;48.550;9.108;2022-10-16T00:13:00;3.00;;;2.50;;
18360;SDS011;9308;48.550;9.108;2022-10-16T00:15:25;2.53;;;2.33;;
18360;SDS011;9308;48.550;9.108;2022-10-16T00:17:51;2.40;;;2.20;;
18360;SDS011;9308;48.550;9.108;2022-10-16T00:20:16;4.57;;;2.83;;
18360;SDS011;9308;48.550;9.108;2022-10-16T00:22:41;2.30;;;2.10;;
18360;SDS011;9308;48.550;9.108;2022-10-16T00:25:07;2.70;;;2.50;;
18360;SDS011;9308;48.550;9.108;2022-10-16T00:27:33;3.03;;;2.30;;
18360;SDS011;9308;48.550;9.108;2022-10-16T00:29:59;2.13;;;2.03;;
18360;SDS011;9308;48.550;9.108;2022-10-16T00:32:24;2.40;;;2.20;;
18360;SDS011;9308;48.550;9.108;2022-10-16T00:34:49;2.60;;;2.40;;
18360;SDS011;9308;48.550;9.108;2022-10-16T00:37:15;2.63;;;2.43;;
18360;SDS011;9308;48.550;9.108;2022-10-16T00:39:40;2.77;;;2.27;;
18360;SDS011;9308;48.550;9.108;2022-10-16T00:42:06;3.43;;;2.23;;
18360;SDS011;9308;48.550;9.108;2022-10-16T00:44:42;4.97;;;2.47;;
18360;SDS011;9308;48.550;9.108;2022-10-16T00:47:12;4.47;;;2.77;;
18360;SDS011;9308;48.550;9.108;2022-10-16T00:49:44;2.83;;;2.30;;
18360;SDS011;9308;48.550;9.108;2022-10-16T00:52:11;2.53;;;2.30;;
18360;SDS011;9308;48.550;9.108;2022-10-16T00:54:38;3.53;;;2.90;;
18360;SDS011;9308;48.550;9.108;2022-10-16T00:57:04;4.43;;;2.63;;
18360;SDS011;9308;48.550;9.108;2022-10-16T00:59:38;4.70;;;2.53;;
18360;SDS011;9308;48.550;9.108;2022-10-16T01:02:05;4.17;;;2.80;;
18360;SDS011;9308;48.550;9.108;2022-10-16T01:04:39;4.70;;;2.80;;
18360;SDS011;9308;48.550;9.108;2022-10-16T01:12:50;2.90;;;2.70;;
18360;SDS011;9308;48.550;9.108;2022-10-16T01:18:04;5.03;;;2.60;;
18360;SDS011;9308;48.550;9.108;2022-10-16T01:20:54;2.50;;;2.30;;
18360;SDS011;9308;48.550;9.108;2022-10-16T01:28:40;3.37;;;2.40;;
18360;SDS011;9308;48.550;9.108;2022-10-16T01:31:11;5.37;;;2.30;;
18360;SDS011;9308;48.550;9.108;2022-10-16T01:33:42;4.83;;;2.73;;
18360;SDS011;9308;48.550;9.108;2022-10-16T01:36:16;5.10;;;2.53;;
18360;SDS011;9308;48.550;9.108;2022-10-16T01:38:47;4.20;;;2.47;;
18360;SDS011;9308;48.550;9.108;2022-10-16T01:41:15;3.20;;;2.90;;
18360;SDS011;9308;48.550;9.108;2022-10-16T01:43:46;5.20;;;2.90;;
18360;SDS011;9308;48.550;9.108;2022-10-16T01:46:16;2.37;;;2.17;;
18360;SDS011;9308;48.550;9.108;2022-10-16T01:48:43;2.93;;;2.20;;
18360;SDS011;9308;48.550;9.108;2022-10-16T01:51:10;2.50;;;2.30;;
18360;SDS011;9308;48.550;9.108;2022-10-16T01:53:41;4.60;;;2.77;;
18360;SDS011;9308;48.550;9.108;2022-10-16T01:56:11;4.50;;;3.17;;
18360;SDS011;9308;48.550;9.108;2022-10-16T01:58:40;3.07;;;2.30;;
18360;SDS011;9308;48.550;9.108;2022-10-16T02:01:10;3.30;;;2.80;;
18360;SDS011;9308;48.550;9.108;2022-10-16T02:03:38;3.00;;;2.60;;
18360;SDS011;9308;48.550;9.108;2022-10-16T02:06:06;3.20;;;2.53;;
18360;SDS011;9308;48.550;9.108;2022-10-16T02:08:32;3.57;;;2.40;;
18360;SDS011;9308;48.550;9.108;2022-10-16T02:10:58;2.53;;;2.30;;
18360;SDS011;9308;48.550;9.108;2022-10-16T02:13:36;5.77;;;2.60;;
18360;SDS011;9308;48.550;9.108;2022-10-16T02:16:04;7.03;;;3.20;;
18360;SDS011;9308;48.550;9.108;2022-10-16T02:18:30;4.53;;;2.70;;
18360;SDS011;9308;48.550;9.108;2022-10-16T02:23:45;4.60;;;2.60;;
18360;SDS011;9308;48.550;9.108;2022-10-16T02:26:57;2.37;;;2.20;;
18360;SDS011;9308;48.550;9.108;2022-10-16T02:29:24;5.97;;;2.80;;
18360;SDS011;9308;48.550;9.108;2022-10-16T02:31:52;4.60;;;2.90;;
18360;SDS011;9308;48.550;9.108;2022-10-16T02:34:22;6.47;;;2.57;;
18360;SDS011;9308;48.550;9.108;2022-10-16T02:36:51;8.50;;;2.80;;
18360;SDS011;9308;48.550;9.108;2022-10-16T02:39:17;2.77;;;2.30;;
18360;SDS011;9308;48.550;9.108;2022-10-16T02:41:44;3.53;;;2.30;;
18360;SDS011;9308;48.550;9.108;2022-10-16T02:44:10;4.03;;;2.63;;
18360;SDS011;9308;48.550;9.108;2022-10-16T02:46:36;4.30;;;2.70;;
18360;SDS011;9308;48.550;9.108;2022-10-16T02:49:02;3.37;;;2.80;;
18360;SDS011;9308;48.550;9.108;2022-10-16T02:51:27;4.87;;;2.67;;
18360;SDS011;9308;48.550;9.108;2022-10-16T02:53:52;2.60;;;2.30;;
18360;SDS011;9308;48.550;9.108;2022-10-16T02:56:18;6.50;;;2.80;;
18360;SDS011;9308;48.550;9.108;2022-10-16T02:58:43;3.30;;;3.00;;
18360;SDS011;9308;48.550;9.108;2022-10-16T03:01:09;3.63;;;2.90;;
18360;SDS011;9308;48.550;9.108;2022-10-16T03:03:35;2.70;;;2.50;;
18360;SDS011;9308;48.550;9.108;2022-10-16T03:06:01;3.50;;;2.03;;
18360;SDS011;9308;48.550;9.108;2022-10-16T03:08:26;2.50;;;2.33;;
18360;SDS011;9308;48.550;9.108;2022-10-16T03:10:52;2.70;;;2.50;;
18360;SDS011;9308;48.550;9.108;2022-10-16T03:13:17;2.70;;;2.30;;
18360;SDS011;9308;48.550;9.108;2022-10-16T03:15:45;8.03;;;2.43;;
18360;SDS011;9308;48.550;9.108;2022-10-16T03:18:11;2.90;;;2.30;;
18360;SDS011;9308;48.550;9.108;2022-10-16T03:20:36;2.63;;;2.43;;
18360;SDS011;9308;48.550;9.108;2022-10-16T03:23:02;3.07;;;2.80;;
18360;SDS011;9308;48.550;9.108;2022-10-16T03:25:28;4.60;;;3.10;;
18360;SDS011;9308;48.550;9.108;2022-10-16T03:27:53;2.47;;;2.27;;
18360;SDS011;9308;48.550;9.108;2022-10-16T03:30:19;4.73;;;3.00;;
18360;SDS011;9308;48.550;9.108;2022-10-16T03:32:44;2.57;;;2.37;;
18360;SDS011;9308;48.550;9.108;2022-10-16T03:35:11;5.83;;;2.20;;
18360;SDS011;9308;48.550;9.108;2022-10-16T03:37:37;3.80;;;2.70;;
18360;SDS011;9308;48.550;9.108;2022-10-16T03:40:03;3.33;;;2.43;;
18360;SDS011;9308;48.550;9.108;2022-10-16T03:42:29;2.53;;;2.33;;
18360;SDS011;9308;48.550;9.108;2022-10-16T03:44:54;3.90;;;3.13;;
18360;SDS011;9308;48.550;9.108;2022-10-16T03:47:20;2.73;;;2.40;;
18360;SDS011;9308;48.550;9.108;2022-10-16T03:49:47;5.33;;;2.20;;
18360;SDS011;9308;48.550;9.108;2022-10-16T03:52:13;2.57;;;2.37;;
18360;SDS011;9308;48.550;9.108;2022-10-16T03:54:38;2.20;;;2.10;;
18360;SDS011;9308;48.550;9.108;2022-10-16T03:57:04;4.13;;;2.20;;
18360;SDS011;9308;48.550;9.108;2022-10-16T03:59:29;4.07;;;2.80;;
18360;SDS011;9308;48.550;9.108;2022-10-16T04:01:55;6.70;;;2.50;;
18360;SDS011;9308;48.550;9.108;2022-10-16T04:04:20;4.03;;;2.43;;
18360;SDS011;9308;48.550;9.108;2022-10-16T04:06:46;2.67;;;2.40;;
18360;SDS011;9308;48.550;9.108;2022-10-16T04:09:11;2.90;;;2.70;;
18360;SDS011;9308;48.550;9.108;2022-10-16T04:11:37;3.73;;;2.40;;
18360;SDS011;9308;48.550;9.108;2022-10-16T04:14:02;4.97;;;2.60;;
18360;SDS011;9308;48.550;9.108;2022-10-16T04:16:27;6.57;;;3.30;;
18360;SDS011;9308;48.550;9.108;2022-10-16T04:18:53;3.70;;;2.17;;
18360;SDS011;9308;48.550;9.108;2022-10-16T04:21:18;2.40;;;2.30;;
18360;SDS011;9308;48.550;9.108;2022-10-16T04:23:44;3.40;;;2.50;;
18360;SDS011;9308;48.550;9.108;2022-10-16T04:26:09;3.23;;;2.50;;
18360;SDS011;9308;48.550;9.108;2022-10-16T04:28:35;2.90;;;2.70;;
18360;SDS011;9308;48.550;9.108;2022-10-16T04:31:03;2.77;;;2.57;;
18360;SDS011;9308;48.550;9.108;2022-10-16T04:33:29;2.70;;;2.50;;
18360;SDS011;9308;48.550;9.108;2022-10-16T04:35:58;3.77;;;2.60;;
18360;SDS011;9308;48.550;9.108;2022-10-16T04:38:25;4.40;;;2.80;;
18360;SDS011;9308;48.550;9.108;2022-10-16T04:40:51;4.20;;;3.00;;
18360;SDS011;9308;48.550;9.108;2022-10-16T04:43:17;4.53;;;3.47;;
18360;SDS011;9308;48.550;9.108;2022-10-16T04:45:42;5.60;;;3.20;;
18360;SDS011;9308;48.550;9.108;2022-10-16T04:48:08;5.63;;;3.70;;
18360;SDS011;9308;48.550;9.108;2022-10-16T04:50:33;5.00;;;3.40;;
18360;SDS011;9308;48.550;9.108;2022-10-16T04:52:58;3.47;;;3.10;;
18360;SDS011;9308;48.550;9.108;2022-10-16T04:55:24;4.47;;;3.10;;
18360;SDS011;9308;48.550;9.108;2022-10-16T04:57:50;3.83;;;2.87;;
18360;SDS011;9308;48.550;9.108;2022-10-16T05:00:15;3.80;;;3.47;;
18360;SDS011;9308;48.550;9.108;2022-10-16T05:02:41;3.80;;;2.77;;
18360;SDS011;9308;48.550;9.108;2022-10-16T05:05:06;3.43;;;3.10;;
18360;SDS011;9308;48.550;9.108;2022-10-16T05:07:32;3.70;;;3.40;;
18360;SDS011;9308;48.550;9.108;2022-10-16T05:09:57;3.93;;;3.67;;
18360;SDS011;9308;48.550;9.108;2022-10-16T05:12:23;3.80;;;3.50;;
18360;SDS011;9308;48.550;9.108;2022-10-16T05:14:48;5.17;;;3.90;;
18360;SDS011;9308;48.550;9.108;2022-10-16T05:17:14;3.50;;;3.10;;
18360;SDS011;9308;48.550;9.108;2022-10-16T05:19:39;3.50;;;3.23;;
18360;SDS011;9308;48.550;9.108;2022-10-16T05:22:05;4.17;;;3.03;;
18360;SDS011;9308;48.550;9.108;2022-10-16T05:24:30;3.73;;;3.20;;
18360;SDS011;9308;48.550;9.108;2022-10-16T05:26:56;3.20;;;2.90;;
18360;SDS011;9308;48.550;9.108;2022-10-16T05:29:21;7.00;;;3.23;;
18360;SDS011;9308;48.550;9.108;2022-10-16T05:31:49;4.73;;;3.20;;
18360;SDS011;9308;48.550;9.108;2022-10-16T05:34:15;3.20;;;2.80;;
18360;SDS011;9308;48.550;9.108;2022-10-16T05:36:41;3.30;;;2.63;;
18360;SDS011;9308;48.550;9.108;2022-10-16T05:39:06;2.80;;;2.60;;
18360;SDS011;9308;48.550;9.108;2022-10-16T05:41:32;3.90;;;2.90;;
18360;SDS011;9308;48.550;9.108;2022-10-16T05:43:57;3.57;;;3.27;;
18360;SDS011;9308;48.550;9.108;2022-10-16T05:46:22;2.90;;;2.70;;
18360;SDS011;9308;48.550;9.108;2022-10-16T05:48:48;5.47;;;3.03;;
18360;SDS011;9308;48.550;9.108;2022-10-16T05:51:14;4.00;;;3.00;;
18360;SDS011;9308;48.550;9.108;2022-10-16T05:53:40;3.07;;;2.87;;
18360;SDS011;9308;48.550;9.108;2022-10-16T05:56:06;2.83;;;2.53;;
18360;SDS011;9308;48.550;9.108;2022-10-16T05:58:35;4.40;;;3.17;;
18360;SDS011;9308;48.550;9.108;2022-10-16T06:01:03;3.30;;;2.80;;
18360;SDS011;9308;48.550;9.108;2022-10-16T06:03:30;3.00;;;2.80;;
18360;SDS011;9308;48.550;9.108;2022-10-16T06:05:55;4.23;;;2.93;;
18360;SDS011;9308;48.550;9.108;2022-10-16T06:08:21;3.63;;;2.90;;
18360;SDS011;9308;48.550;9.108;2022-10-16T06:10:48;4.00;;;3.30;;
18360;SDS011;9308;48.550;9.108;2022-10-16T06:13:15;3.77;;;2.80;;
18360;SDS011;9308;48.550;9.108;2022-10-16T06:15:41;3.70;;;2.50;;
18360;SDS011;9308;48.550;9.108;2022-10-16T06:18:07;2.93;;;2.70;;
18360;SDS011;9308;48.550;9.108;2022-10-16T06:20:36;4.10;;;2.10;;
18360;SDS011;9308;48.550;9.108;2022-10-16T06:23:02;3.20;;;2.90;;
18360;SDS011;9308;48.550;9.108;2022-10-16T06:25:30;3.03;;;2.77;;
18360;SDS011;9308;48.550;9.108;2022-10-16T06:27:56;2.90;;;2.50;;
18360;SDS011;9308;48.550;9.108;2022-10-16T06:30:22;2.87;;;2.57;;
18360;SDS011;9308;48.550;9.108;2022-10-16T06:32:47;2.80;;;2.60;;
18360;SDS011;9308;48.550;9.108;2022-10-16T06:35:13;3.63;;;2.43;;
18360;SDS011;9308;48.550;9.108;2022-10-16T06:37:38;2.60;;;2.40;;
18360;SDS011;9308;48.550;9.108;2022-10-16T06:40:04;3.93;;;2.57;;
18360;SDS011;9308;48.550;9.108;2022-10-16T06:42:30;2.17;;;2.07;;
18360;SDS011;9308;48.550;9.108;2022-10-16T06:44:55;3.03;;;2.70;;
18360;SDS011;9308;48.550;9.108;2022-10-16T06:47:21;3.10;;;2.60;;
18360;SDS011;9308;48.550;9.108;2022-10-16T06:49:46;2.60;;;2.40;;
18360;SDS011;9308;48.550;9.108;2022-10-16T06:52:12;3.90;;;2.50;;
18360;SDS011;9308;48.550;9.108;2022-10-16T06:54:37;3.50;;;2.63;;
18360;SDS011;9308;48.550;9.108;2022-10-16T06:57:03;3.40;;;2.30;;
18360;SDS011;9308;48.550;9.108;2022-10-16T06:59:28;2.60;;;2.40;;
18360;SDS011;9308;48.550;9.108;2022-10-16T07:01:53;2.70;;;2.50;;
18360;SDS011;9308;48.550;9.108;2022-10-16T07:04:19;2.87;;;2.60;;
18360;SDS011;9308;48.550;9.108;2022-10-16T07:06:44;3.93;;;2.70;;
18360;SDS011;9308;48.550;9.108;2022-10-16T07:09:10;4.10;;;3.00;;
18360;SDS011;9308;48.550;9.108;2022-10-16T07:11:36;3.27;;;2.97;;
18360;SDS011;9308;48.550;9.108;2022-10-16T07:14:03;3.43;;;2.93;;
18360;SDS011;9308;48.550;9.108;2022-10-16T07:16:29;4.63;;;2.93;;
18360;SDS011;9308;48.550;9.108;2022-10-16T07:18:57;3.03;;;2.80;;
18360;SDS011;9308;48.550;9.108;2022-10-16T07:21:28;2.57;;;2.37;;
18360;SDS011;9308;48.550;9.108;2022-10-16T07:23:56;3.20;;;3.00;;
18360;SDS011;9308;48.550;9.108;2022-10-16T07:26:26;4.13;;;3.27;;
18360;SDS011;9308;48.550;9.108;2022-10-16T07:28:53;4.67;;;3.40;;
18360;SDS011;9308;48.550;9.108;2022-10-16T07:31:19;3.40;;;2.87;;
18360;SDS011;9308;48.550;9.108;2022-10-16T07:33:46;3.20;;;2.90;;
18360;SDS011;9308;48.550;9.108;2022-10-16T07:36:13;5.47;;;3.23;;
18360;SDS011;9308;48.550;9.108;2022-10-16T07:38:43;5.20;;;4.70;;
18360;SDS011;9308;48.550;9.108;2022-10-16T07:41:09;5.17;;;4.77;;
18360;SDS011;9308;48.550;9.108;2022-10-16T07:43:36;4.20;;;2.70;;
18360;SDS011;9308;48.550;9.108;2022-10-16T07:46:02;3.73;;;2.50;;
18360;SDS011;9308;48.550;9.108;2022-10-16T07:48:29;3.60;;;2.53;;
18360;SDS011;9308;48.550;9.108;2022-10-16T07:51:06;2.43;;;2.20;;
18360;SDS011;9308;48.550;9.108;2022-10-16T07:53:32;2.10;;;2.00;;
18360;SDS011;9308;48.550;9.108;2022-10-16T07:56:02;2.37;;;2.17;;
18360;SDS011;9308;48.550;9.108;2022-10-16T07:58:32;2.10;;;2.00;;
18360;SDS011;9308;48.550;9.108;2022-10-16T08:00:59;2.27;;;2.07;;
18360;SDS011;9308;48.550;9.108;2022-10-16T08:03:29;2.67;;;2.30;;
18360;SDS011;9308;48.550;9.108;2022-10-16T08:05:56;2.47;;;2.23;;
18360;SDS011;9308;48.550;9.108;2022-10-16T08:08:22;3.67;;;2.30;;
18360;SDS011;9308;48.550;9.108;2022-10-16T08:10:47;2.90;;;1.80;;
18360;SDS011;9308;48.550;9.108;2022-10-16T08:13:13;2.60;;;2.40;;
18360;SDS011;9308;48.550;9.108;2022-10-16T08:15:40;2.50;;;2.03;;
18360;SDS011;9308;48.550;9.108;2022-10-16T08:18:06;3.20;;;2.53;;
18360;SDS011;9308;48.550;9.108;2022-10-16T08:20:32;6.63;;;2.63;;
18360;SDS011;9308;48.550;9.108;2022-10-16T08:22:58;4.47;;;2.27;;
18360;SDS011;9308;48.550;9.108;2022-10-16T08:25:24;3.90;;;2.40;;
18360;SDS011;9308;48.550;9.108;2022-10-16T08:27:50;2.47;;;2.13;;
18360;SDS011;9308;48.550;9.108;2022-10-16T08:30:17;2.80;;;2.30;;
18360;SDS011;9308;48.550;9.108;2022-10-16T08:32:43;2.30;;;2.07;;
18360;SDS011;9308;48.550;9.108;2022-10-16T08:35:09;2.67;;;2.47;;
18360;SDS011;9308;48.550;9.108;2022-10-16T08:37:35;2.33;;;2.10;;
18360;SDS011;9308;48.550;9.108;2022-10-16T08:40:01;3.00;;;2.20;;
18360;SDS011;9308;48.550;9.108;2022-10-16T08:50:41;2.60;;;2.40;;
18360;SDS011;9308;48.550;9.108;2022-10-16T08:53:07;4.80;;;4.40;;
18360;SDS011;9308;48.550;9.108;2022-10-16T08:55:49;3.30;;;3.00;;
18360;SDS011;9308;48.550;9.108;2022-10-16T08:58:16;3.17;;;2.50;;
18360;SDS011;9308;48.550;9.108;2022-10-16T09:00:48;2.87;;;2.50;;
18360;SDS011;9308;48.550;9.108;2022-10-16T09:06:07;3.60;;;2.30;;
18360;SDS011;9308;48.550;9.108;2022-10-16T09:16:54;3.73;;;2.77;;
18360;SDS011;9308;48.550;9.108;2022-10-16T09:19:29;2.20;;;2.00;;
18360;SDS011;9308;48.550;9.108;2022-10-16T09:21:59;3.00;;;2.33;;
18360;SDS011;9308;48.550;9.108;2022-10-16T09:24:35;3.53;;;2.10;;
18360;SDS011;9308;48.550;9.108;2022-10-16T09:27:02;3.97;;;2.37;;
18360;SDS011;9308;48.550;9.108;2022-10-16T09:29:27;2.17;;;1.97;;
18360;SDS011;9308;48.550;9.108;2022-10-16T09:31:53;2.83;;;2.53;;
18360;SDS011;9308;48.550;9.108;2022-10-16T09:34:31;3.07;;;2.87;;
18360;SDS011;9308;48.550;9.108;2022-10-16T09:37:07;3.57;;;2.30;;
18360;SDS011;9308;48.550;9.108;2022-10-16T09:39:47;2.67;;;2.37;;
18360;SDS011;9308;48.550;9.108;2022-10-16T09:42:23;3.13;;;2.60;;
18360;SDS011;9308;48.550;9.108;2022-10-16T09:44:55;2.57;;;2.37;;
18360;SDS011;9308;48.550;9.108;2022-10-16T09:47:25;3.40;;;2.03;;
18360;SDS011;9308;48.550;9.108;2022-10-16T09:49:56;1.93;;;1.83;;
18360;SDS011;9308;48.550;9.108;2022-10-16T09:52:30;3.30;;;2.30;;
18360;SDS011;9308;48.550;9.108;2022-10-16T09:54:57;5.73;;;2.20;;
18360;SDS011;9308;48.550;9.108;2022-10-16T09:57:24;2.60;;;2.17;;
18360;SDS011;9308;48.550;9.108;2022-10-16T09:59:57;2.50;;;2.30;;
18360;SDS011;9308;48.550;9.108;2022-10-16T10:02:27;3.97;;;2.13;;
18360;SDS011;9308;48.550;9.108;2022-10-16T10:04:53;4.23;;;2.13;;
18360;SDS011;9308;48.550;9.108;2022-10-16T10:07:21;6.40;;;2.30;;
18360;SDS011;9308;48.550;9.108;2022-10-16T10:09:52;7.03;;;2.13;;
18360;SDS011;9308;48.550;9.108;2022-10-16T10:12:23;2.27;;;2.17;;
18360;SDS011;9308;48.550;9.108;2022-10-16T10:14:51;2.00;;;1.90;;
18360;SDS011;9308;48.550;9.108;2022-10-16T10:22:59;2.20;;;2.00;;
18360;SDS011;9308;48.550;9.108;2022-10-16T10:27:39;2.40;;;1.80;;
18360;SDS011;9308;48.550;9.108;2022-10-16T10:30:42;1.90;;;1.80;;
18360;SDS011;9308;48.550;9.108;2022-10-16T10:39:30;4.10;;;1.83;;
18360;SDS011;9308;48.550;9.108;2022-10-16T10:44:50;1.63;;;1.53;;
18360;SDS011;9308;48.550;9.108;2022-10-16T10:52:47;1.80;;;1.70;;
18360;SDS011;9308;48.550;9.108;2022-10-16T10:55:36;2.70;;;2.10;;
18360;SDS011;9308;48.550;9.108;2022-10-16T10:59:06;3.03;;;1.80;;
18360;SDS011;9308;48.550;9.108;2022-10-16T11:01:13;4.30;;;1.70;;
18360;SDS011;9308;48.550;9.108;2022-10-16T11:03:42;3.00;;;1.40;;
18360;SDS011;9308;48.550;9.108;2022-10-16T11:06:22;3.07;;;1.70;;
18360;SDS011;9308;48.550;9.108;2022-10-16T11:08:51;1.53;;;1.43;;
18360;SDS011;9308;48.550;9.108;2022-10-16T11:11:23;1.50;;;1.40;;
18360;SDS011;9308;48.550;9.108;2022-10-16T11:14:06;5.40;;;1.90;;
18360;SDS011;9308;48.550;9.108;2022-10-16T11:16:35;2.30;;;1.60;;
18360;SDS011;9308;48.550;9.108;2022-10-16T11:19:10;2.60;;;1.80;;
18360;SDS011;9308;48.550;9.108;2022-10-16T11:21:50;2.07;;;1.60;;
18360;SDS011;9308;48.550;9.108;2022-10-16T11:27:12;2.00;;;1.70;;
18360;SDS011;9308;48.550;9.108;2022-10-16T11:29:50;2.23;;;2.00;;
18360;SDS011;9308;48.550;9.108;2022-10-16T11:32:24;1.90;;;1.80;;
18360;SDS011;9308;48.550;9.108;2022-10-16T11:34:57;4.10;;;1.70;;
18360;SDS011;9308;48.550;9.108;2022-10-16T11:37:30;1.97;;;1.67;;
18360;SDS011;9308;48.550;9.108;2022-10-16T11:40:03;2.23;;;1.80;;
18360;SDS011;9308;48.550;9.108;2022-10-16T11:42:44;2.60;;;1.60;;
18360;SDS011;9308;48.550;9.108;2022-10-16T11:45:27;3.07;;;1.80;;
18360;SDS011;9308;48.550;9.108;2022-10-16T11:48:00;1.90;;;1.80;;
18360;SDS011;9308;48.550;9.108;2022-10-16T11:50:34;1.80;;;1.70;;
18360;SDS011;9308;48.550;9.108;2022-10-16T11:55:49;2.07;;;1.90;;
18360;SDS011;9308;48.550;9.108;2022-10-16T12:01:14;1.90;;;1.80;;
18360;SDS011;9308;48.550;9.108;2022-10-16T12:03:47;1.83;;;1.73;;
18360;SDS011;9308;48.550;9.108;2022-10-16T12:09:01;1.97;;;1.33;;
18360;SDS011;9308;48.550;9.108;2022-10-16T12:16:32;3.00;;;2.23;;
18360;SDS011;9308;48.550;9.108;2022-10-16T12:19:11;2.77;;;1.70;;
18360;SDS011;9308;48.550;9.108;2022-10-16T12:21:39;1.90;;;1.80;;
18360;SDS011;9308;48.550;9.108;2022-10-16T12:24:06;2.30;;;1.67;;
18360;SDS011;9308;48.550;9.108;2022-10-16T12:26:32;2.13;;;1.70;;
18360;SDS011;9308;48.550;9.108;2022-10-16T12:29:14;2.70;;;1.70;;
18360;SDS011;9308;48.550;9.108;2022-10-16T12:31:48;1.70;;;1.60;;
18360;SDS011;9308;48.550;9.108;2022-10-16T12:34:22;2.13;;;1.87;;
18360;SDS011;9308;48.550;9.108;2022-10-16T12:36:52;2.03;;;1.80;;
18360;SDS011;9308;48.550;9.108;2022-10-16T12:39:23;2.40;;;1.70;;
18360;SDS011;9308;48.550;9.108;2022-10-16T12:42:03;1.83;;;1.70;;
18360;SDS011;9308;48.550;9.108;2022-10-16T12:44:34;2.50;;;1.80;;
18360;SDS011;9308;48.550;9.108;2022-10-16T12:47:00;2.17;;;1.97;;
18360;SDS011;9308;48.550;9.108;2022-10-16T12:49:37;3.50;;;2.40;;
18360;SDS011;9308;48.550;9.108;2022-10-16T12:52:04;2.43;;;2.33;;
18360;SDS011;9308;48.550;9.108;2022-10-16T12:54:48;2.40;;;2.20;;
18360;SDS011;9308;48.550;9.108;2022-10-16T12:57:29;4.80;;;2.33;;
18360;SDS011;9308;48.550;9.108;2022-10-16T13:00:30;4.43;;;2.73;;
18360;SDS011;9308;48.550;9.108;2022-10-16T13:03:21;3.57;;;2.47;;
18360;SDS011;9308;48.550;9.108;2022-10-16T13:22:17;3.00;;;2.67;;
18360;SDS011;9308;48.550;9.108;2022-10-16T13:25:02;3.50;;;2.23;;
18360;SDS011;9308;48.550;9.108;2022-10-16T13:30:18;2.73;;;2.10;;
18360;SDS011;9308;48.550;9.108;2022-10-16T13:32:59;2.27;;;2.17;;
18360;SDS011;9308;48.550;9.108;2022-10-16T13:35:49;2.33;;;2.07;;
18360;SDS011;9308;48.550;9.108;2022-10-16T13:38:17;3.93;;;2.30;;
18360;SDS011;9308;48.550;9.108;2022-10-16T13:45:55;3.53;;;2.73;;
18360;SDS011;9308;48.550;9.108;2022-10-16T13:48:25;3.43;;;2.40;;
18360;SDS011;9308;48.550;9.108;2022-10-16T13:53:34;2.80;;;2.57;;
18360;SDS011;9308;48.550;9.108;2022-10-16T13:56:01;2.27;;;2.10;;
18360;SDS011;9308;48.550;9.108;2022-10-16T13:58:28;2.87;;;2.27;;
18360;SDS011;9308;48.550;9.108;2022-10-16T14:01:01;2.60;;;2.40;;
18360;SDS011;9308;48.550;9.108;2022-10-16T14:03:40;2.50;;;2.17;;
18360;SDS011;9308;48.550;9.108;2022-10-16T14:06:10;3.47;;;3.10;;
18360;SDS011;9308;48.550;9.108;2022-10-16T14:08:40;3.80;;;2.80;;
18360;SDS011;9308;48.550;9.108;2022-10-16T14:11:08;3.20;;;2.40;;
18360;SDS011;9308;48.550;9.108;2022-10-16T14:13:36;5.93;;;2.50;;
18360;SDS011;9308;48.550;9.108;2022-10-16T14:16:07;3.03;;;2.73;;
18360;SDS011;9308;48.550;9.108;2022-10-16T14:18:35;2.80;;;2.60;;
18360;SDS011;9308;48.550;9.108;2022-10-16T14:21:07;2.83;;;2.50;;
18360;SDS011;9308;48.550;9.108;2022-10-16T14:23:40;3.97;;;2.43;;
18360;SDS011;9308;48.550;9.108;2022-10-16T14:28:36;5.00;;;2.70;;
18360;SDS011;9308;48.550;9.108;2022-10-16T14:31:16;5.60;;;2.80;;
18360;SDS011;9308;48.550;9.108;2022-10-16T14:33:56;2.87;;;2.67;;
18360;SDS011;9308;48.550;9.108;2022-10-16T14:36:22;3.13;;;2.43;;
18360;SDS011;9308;48.550;9.108;2022-10-16T14:38:57;2.80;;;2.57;;
18360;SDS011;9308;48.550;9.108;2022-10-16T14:41:23;3.50;;;2.53;;
18360;SDS011;9308;48.550;9.108;2022-10-16T14:43:50;3.10;;;2.90;;
18360;SDS011;9308;48.550;9.108;2022-10-16T14:46:20;2.67;;;2.47;;
18360;SDS011;9308;48.550;9.108;2022-10-16T14:48:51;3.23;;;2.93;;
18360;SDS011;9308;48.550;9.108;2022-10-16T14:51:24;4.20;;;3.13;;
18360;SDS011;9308;48.550;9.108;2022-10-16T14:53:51;2.97;;;2.60;;
18360;SDS011;9308;48.550;9.108;2022-10-16T14:56:21;2.80;;;2.60;;
18360;SDS011;9308;48.550;9.108;2022-10-16T14:58:49;5.20;;;2.90;;
18360;SDS011;9308;48.550;9.108;2022-10-16T15:01:16;3.10;;;2.83;;
18360;SDS011;9308;48.550;9.108;2022-10-16T15:03:42;4.07;;;2.70;;
18360;SDS011;9308;48.550;9.108;2022-10-16T15:06:11;3.27;;;2.97;;
18360;SDS011;9308;48.550;9.108;2022-10-16T15:08:38;3.30;;;3.10;;
18360;SDS011;9308;48.550;9.108;2022-10-16T15:11:04;3.27;;;3.07;;
18360;SDS011;9308;48.550;9.108;2022-10-16T15:13:30;4.93;;;2.93;;
18360;SDS011;9308;48.550;9.108;2022-10-16T15:15:55;3.30;;;3.10;;
18360;SDS011;9308;48.550;9.108;2022-10-16T15:18:21;3.33;;;3.10;;
18360;SDS011;9308;48.550;9.108;2022-10-16T15:20:50;3.40;;;3.10;;
18360;SDS011;9308;48.550;9.108;2022-10-16T15:23:17;3.60;;;3.30;;
18360;SDS011;9308;48.550;9.108;2022-10-16T15:25:47;3.60;;;3.30;;
18360;SDS011;9308;48.550;9.108;2022-10-16T15:28:15;4.20;;;3.50;;
18360;SDS011;9308;48.550;9.108;2022-10-16T15:30:42;5.10;;;3.47;;
18360;SDS011;9308;48.550;9.108;2022-10-16T15:33:11;3.57;;;3.33;;
18360;SDS011;9308;48.550;9.108;2022-10-16T15:35:38;6.50;;;3.53;;
18360;SDS011;9308;48.550;9.108;2022-10-16T15:38:04;4.37;;;2.80;;
18360;SDS011;9308;48.550;9.108;2022-10-16T15:40:29;4.13;;;3.40;;
18360;SDS011;9308;48.550;9.108;2022-10-16T15:42:55;4.27;;;3.90;;
18360;SDS011;9308;48.550;9.108;2022-10-16T15:45:20;4.83;;;3.87;;
18360;SDS011;9308;48.550;9.108;2022-10-16T15:47:46;6.50;;;3.93;;
18360;SDS011;9308;48.550;9.108;2022-10-16T15:50:12;4.50;;;3.50;;
18360;SDS011;9308;48.550;9.108;2022-10-16T15:52:39;3.93;;;3.47;;
18360;SDS011;9308;48.550;9.108;2022-10-16T15:55:08;5.10;;;4.30;;
18360;SDS011;9308;48.550;9.108;2022-10-16T15:57:36;3.57;;;2.90;;
18360;SDS011;9308;48.550;9.108;2022-10-16T16:00:10;5.10;;;3.63;;
18360;SDS011;9308;48.550;9.108;2022-10-16T16:02:40;3.80;;;3.50;;
18360;SDS011;9308;48.550;9.108;2022-10-16T16:05:07;4.17;;;3.67;;
18360;SDS011;9308;48.550;9.108;2022-10-16T16:07:35;4.70;;;3.70;;
18360;SDS011;9308;48.550;9.108;2022-10-16T16:10:00;3.63;;;3.33;;
18360;SDS011;9308;48.550;9.108;2022-10-16T16:12:27;3.23;;;3.03;;
18360;SDS011;9308;48.550;9.108;2022-10-16T16:14:52;3.50;;;3.20;;
18360;SDS011;9308;48.550;9.108;2022-10-16T16:17:18;3.40;;;3.20;;
18360;SDS011;9308;48.550;9.108;2022-10-16T16:19:43;4.33;;;3.93;;
18360;SDS011;9308;48.550;9.108;2022-10-16T16:22:10;5.13;;;3.67;;
18360;SDS011;9308;48.550;9.108;2022-10-16T16:24:35;6.17;;;3.83;;
18360;SDS011;9308;48.550;9.108;2022-10-16T16:27:01;9.10;;;4.23;;
18360;SDS011;9308;48.550;9.108;2022-10-16T16:29:26;6.33;;;4.40;;
18360;SDS011;9308;48.550;9.108;2022-10-16T16:31:52;6.20;;;4.57;;
18360;SDS011;9308;48.550;9.108;2022-10-16T16:34:25;9.77;;;4.83;;
18360;SDS011;9308;48.550;9.108;2022-10-16T16:36:52;5.50;;;5.00;;
18360;SDS011;9308;48.550;9.108;2022-10-16T16:39:18;7.27;;;4.80;;
18360;SDS011;9308;48.550;9.108;2022-10-16T16:41:44;8.73;;;5.53;;
18360;SDS011;9308;48.550;9.108;2022-10-16T16:44:11;6.07;;;5.00;;
18360;SDS011;9308;48.550;9.108;2022-10-16T16:46:36;6.70;;;4.90;;
18360;SDS011;9308;48.550;9.108;2022-10-16T16:49:02;7.23;;;4.30;;
18360;SDS011;9308;48.550;9.108;2022-10-16T16:51:28;10.17;;;4.40;;
18360;SDS011;9308;48.550;9.108;2022-10-16T16:53:54;7.73;;;4.60;;